Portada
METAR-TAF:

METAR-TAF

Aeroports :

Honiara, Guadalcanal, Illes Salomó

latitud: 09-25S, longitud: 160-03E, altitud: 8 m

Observació

L'informe es va fer fa 1 hora i 3 minuts, a les 04:00 UTC
Temperatura
Pressió

METAR: AGGH 010400Z METAR

Hora: 16:03 (05:03 UTC)

Pronòstic

L'informe es va fer fa 5 hores i 53 minuts, a les 23:10 UTC
Pronòstic vàlid del 01 a les 00 UTC al 01 a les 24 UTC
Vent 15 kt del Est/Nord-Est
Visibilitat: 1011 m
Escasses núvols a una alçada de 1800 ft
Núvols disperses a una alçada de 3000 ft

TAF: AGGH 312310Z 0100/0124 07015KT 9999 FEW018 SCT030 T 31 32 31 28 Q 1012 1010 1009 1011

Observacions i pronòstics meteorològics de més de 4000 aeroports (METAR i TAF).

Les estacions disponibles són els punts grocs i vermells al mapa.

Posi el ratolí al punt desitjat per veure el nom de l'estació.

Feu clic per veure les observacions i els pronòstics meteorològics.

Per canviar el mapa: feu clic els botons verds amb una creu de color negre per apropar; al botó verd amb un guió per allunyar la imatge; o en les fletxes verdes per a mapes adjacents.


METAR-TAF: